sensor_id;sensor_type;location;lat;lon;timestamp;pressure;altitude;pressure_sealevel;temperature;humidity
7168;BME280;3625;51.762;14.320;2023-04-04T00:01:15;102038.84;;;2.41;93.44
7168;BME280;3625;51.762;14.320;2023-04-04T00:03:43;102033.50;;;2.38;94.40
7168;BME280;3625;51.762;14.320;2023-04-04T00:06:13;102037.78;;;2.36;93.89
7168;BME280;3625;51.762;14.320;2023-04-04T00:08:41;102032.41;;;2.31;94.07
7168;BME280;3625;51.762;14.320;2023-04-04T00:11:11;101983.63;;;2.06;94.39
7168;BME280;3625;51.762;14.320;2023-04-04T00:13:40;102008.50;;;2.20;93.73
7168;BME280;3625;51.762;14.320;2023-04-04T00:16:09;102004.06;;;2.18;92.76
7168;BME280;3625;51.762;14.320;2023-04-04T00:18:38;102027.81;;;2.25;92.74
7168;BME280;3625;51.762;14.320;2023-04-04T00:21:07;102030.41;;;2.24;92.91
7168;BME280;3625;51.762;14.320;2023-04-04T00:23:36;102030.22;;;2.19;93.33
7168;BME280;3625;51.762;14.320;2023-04-04T00:26:04;102031.16;;;2.21;94.16
7168;BME280;3625;51.762;14.320;2023-04-04T00:28:34;102028.38;;;2.17;94.25
7168;BME280;3625;51.762;14.320;2023-04-04T00:31:03;102024.66;;;2.10;94.53
7168;BME280;3625;51.762;14.320;2023-04-04T00:33:32;102028.91;;;2.07;95.04
7168;BME280;3625;51.762;14.320;2023-04-04T00:36:01;101947.03;;;1.59;95.80
7168;BME280;3625;51.762;14.320;2023-04-04T00:38:30;102023.47;;;2.02;95.74
7168;BME280;3625;51.762;14.320;2023-04-04T00:40:59;102019.75;;;1.96;95.86
7168;BME280;3625;51.762;14.320;2023-04-04T00:43:28;102028.25;;;1.90;96.19
7168;BME280;3625;51.762;14.320;2023-04-04T00:45:59;102026.22;;;1.83;96.64
7168;BME280;3625;51.762;14.320;2023-04-04T00:48:28;102019.94;;;1.78;97.07
7168;BME280;3625;51.762;14.320;2023-04-04T00:50:57;102024.13;;;1.73;97.50
7168;BME280;3625;51.762;14.320;2023-04-04T00:53:26;102026.72;;;1.73;97.88
7168;BME280;3625;51.762;14.320;2023-04-04T00:55:55;102023.03;;;1.68;98.28
7168;BME280;3625;51.762;14.320;2023-04-04T00:58:24;101953.56;;;1.25;98.79
7168;BME280;3625;51.762;14.320;2023-04-04T01:00:54;102017.28;;;1.54;98.72
7168;BME280;3625;51.762;14.320;2023-04-04T01:03:24;102018.88;;;1.50;98.77
7168;BME280;3625;51.762;14.320;2023-04-04T01:05:53;101977.00;;;1.25;99.48
7168;BME280;3625;51.762;14.320;2023-04-04T01:08:25;102002.50;;;1.32;100.00
7168;BME280;3625;51.762;14.320;2023-04-04T01:10:55;102011.41;;;1.37;100.00
7168;BME280;3625;51.762;14.320;2023-04-04T01:13:25;101962.41;;;1.08;100.00
7168;BME280;3625;51.762;14.320;2023-04-04T01:15:55;102020.50;;;1.26;100.00
7168;BME280;3625;51.762;14.320;2023-04-04T01:18:26;101999.03;;;1.11;100.00
7168;BME280;3625;51.762;14.320;2023-04-04T01:21:00;102009.72;;;1.17;100.00
7168;BME280;3625;51.762;14.320;2023-04-04T01:23:43;102012.09;;;1.12;100.00
7168;BME280;3625;51.762;14.320;2023-04-04T01:26:16;102006.56;;;1.03;100.00
7168;BME280;3625;51.762;14.320;2023-04-04T01:28:45;102009.03;;;1.00;100.00
7168;BME280;3625;51.762;14.320;2023-04-04T01:31:17;102002.72;;;0.95;100.00
7168;BME280;3625;51.762;14.320;2023-04-04T01:33:58;101998.91;;;0.87;100.00
7168;BME280;3625;51.762;14.320;2023-04-04T01:36:42;101993.25;;;0.77;100.00
7168;BME280;3625;51.762;14.320;2023-04-04T01:39:26;101998.16;;;0.69;100.00
7168;BME280;3625;51.762;14.320;2023-04-04T01:41:57;101994.31;;;0.61;100.00
7168;BME280;3625;51.762;14.320;2023-04-04T01:44:27;101985.25;;;0.51;100.00
7168;BME280;3625;51.762;14.320;2023-04-04T01:46:56;101998.19;;;0.50;100.00
7168;BME280;3625;51.762;14.320;2023-04-04T01:49:25;101993.41;;;0.40;100.00
7168;BME280;3625;51.762;14.320;2023-04-04T01:51:54;101982.72;;;0.33;100.00
7168;BME280;3625;51.762;14.320;2023-04-04T01:54:23;101990.22;;;0.26;100.00
7168;BME280;3625;51.762;14.320;2023-04-04T01:56:55;101983.81;;;0.19;100.00
7168;BME280;3625;51.762;14.320;2023-04-04T01:59:24;101978.34;;;0.13;100.00
7168;BME280;3625;51.762;14.320;2023-04-04T02:01:53;101980.81;;;0.10;100.00
7168;BME280;3625;51.762;14.320;2023-04-04T02:04:22;101984.03;;;0.05;100.00
7168;BME280;3625;51.762;14.320;2023-04-04T02:06:51;101973.38;;;-0.02;100.00
7168;BME280;3625;51.762;14.320;2023-04-04T02:09:19;101985.34;;;-0.05;100.00
7168;BME280;3625;51.762;14.320;2023-04-04T02:11:48;101981.56;;;-0.12;100.00
7168;BME280;3625;51.762;14.320;2023-04-04T02:14:18;101977.75;;;-0.20;100.00
7168;BME280;3625;51.762;14.320;2023-04-04T02:16:47;101974.16;;;-0.22;100.00
7168;BME280;3625;51.762;14.320;2023-04-04T02:19:16;101977.41;;;-0.27;100.00
7168;BME280;3625;51.762;14.320;2023-04-04T02:21:45;101967.47;;;-0.36;100.00
7168;BME280;3625;51.762;14.320;2023-04-04T02:24:13;101965.25;;;-0.46;100.00
7168;BME280;3625;51.762;14.320;2023-04-04T02:26:42;101936.25;;;-0.73;100.00
7168;BME280;3625;51.762;14.320;2023-04-04T02:29:10;101959.19;;;-0.64;100.00
7168;BME280;3625;51.762;14.320;2023-04-04T02:31:40;101962.53;;;-0.67;100.00
7168;BME280;3625;51.762;14.320;2023-04-04T02:34:09;101959.50;;;-0.76;100.00
7168;BME280;3625;51.762;14.320;2023-04-04T02:36:38;101964.19;;;-0.87;100.00
7168;BME280;3625;51.762;14.320;2023-04-04T02:39:07;101962.41;;;-0.88;100.00
7168;BME280;3625;51.762;14.320;2023-04-04T02:41:37;101958.84;;;-0.90;100.00
7168;BME280;3625;51.762;14.320;2023-04-04T02:44:05;101966.03;;;-1.02;100.00
7168;BME280;3625;51.762;14.320;2023-04-04T02:46:36;101964.47;;;-1.16;100.00
7168;BME280;3625;51.762;14.320;2023-04-04T02:49:09;101948.66;;;-1.21;100.00
7168;BME280;3625;51.762;14.320;2023-04-04T02:51:44;101956.25;;;-1.07;100.00
7168;BME280;3625;51.762;14.320;2023-04-04T02:54:14;101958.41;;;-0.99;100.00
7168;BME280;3625;51.762;14.320;2023-04-04T02:56:45;101957.34;;;-1.02;100.00
7168;BME280;3625;51.762;14.320;2023-04-04T02:59:14;101953.66;;;-1.07;100.00
7168;BME280;3625;51.762;14.320;2023-04-04T03:01:44;101952.75;;;-1.08;100.00
7168;BME280;3625;51.762;14.320;2023-04-04T03:04:14;101945.69;;;-1.10;100.00
7168;BME280;3625;51.762;14.320;2023-04-04T03:06:43;101942.59;;;-1.21;100.00
7168;BME280;3625;51.762;14.320;2023-04-04T03:09:13;101944.22;;;-1.23;100.00
7168;BME280;3625;51.762;14.320;2023-04-04T03:11:42;101946.50;;;-1.29;100.00
7168;BME280;3625;51.762;14.320;2023-04-04T03:14:11;101945.47;;;-1.33;100.00
7168;BME280;3625;51.762;14.320;2023-04-04T03:16:40;101949.47;;;-1.39;100.00
7168;BME280;3625;51.762;14.320;2023-04-04T03:19:08;101896.94;;;-1.69;100.00
7168;BME280;3625;51.762;14.320;2023-04-04T03:21:38;101937.00;;;-1.46;100.00
7168;BME280;3625;51.762;14.320;2023-04-04T03:24:07;101939.44;;;-1.49;100.00
7168;BME280;3625;51.762;14.320;2023-04-04T03:26:36;101938.31;;;-1.55;100.00
7168;BME280;3625;51.762;14.320;2023-04-04T03:29:04;101942.56;;;-1.57;100.00
7168;BME280;3625;51.762;14.320;2023-04-04T03:31:33;101944.19;;;-1.59;100.00
7168;BME280;3625;51.762;14.320;2023-04-04T03:34:02;101945.16;;;-1.57;100.00
7168;BME280;3625;51.762;14.320;2023-04-04T03:36:31;101945.88;;;-1.59;100.00
7168;BME280;3625;51.762;14.320;2023-04-04T03:39:01;101943.44;;;-1.56;100.00
7168;BME280;3625;51.762;14.320;2023-04-04T03:41:30;101941.59;;;-1.59;100.00
7168;BME280;3625;51.762;14.320;2023-04-04T03:43:58;101944.09;;;-1.60;100.00
7168;BME280;3625;51.762;14.320;2023-04-04T03:46:27;101940.53;;;-1.62;100.00
7168;BME280;3625;51.762;14.320;2023-04-04T03:48:58;101937.84;;;-1.64;100.00
7168;BME280;3625;51.762;14.320;2023-04-04T03:51:28;101941.13;;;-1.68;100.00
7168;BME280;3625;51.762;14.320;2023-04-04T03:53:56;101945.25;;;-1.71;100.00
7168;BME280;3625;51.762;14.320;2023-04-04T03:56:26;101853.53;;;-2.23;100.00
7168;BME280;3625;51.762;14.320;2023-04-04T03:59:01;101944.34;;;-1.72;100.00
7168;BME280;3625;51.762;14.320;2023-04-04T04:01:30;101942.34;;;-1.77;100.00
7168;BME280;3625;51.762;14.320;2023-04-04T04:03:59;101941.16;;;-1.84;100.00
7168;BME280;3625;51.762;14.320;2023-04-04T04:06:28;101942.69;;;-1.87;100.00
7168;BME280;3625;51.762;14.320;2023-04-04T04:08:57;101942.53;;;-1.91;100.00
7168;BME280;3625;51.762;14.320;2023-04-04T04:11:28;101941.47;;;-1.94;100.00
7168;BME280;3625;51.762;14.320;2023-04-04T04:13:59;101910.94;;;-2.16;100.00
7168;BME280;3625;51.762;14.320;2023-04-04T04:16:28;101938.63;;;-1.99;100.00
7168;BME280;3625;51.762;14.320;2023-04-04T04:18:58;101943.28;;;-1.93;100.00
7168;BME280;3625;51.762;14.320;2023-04-04T04:21:36;101940.75;;;-1.92;100.00
7168;BME280;3625;51.762;14.320;2023-04-04T04:24:06;101943.78;;;-2.00;100.00
7168;BME280;3625;51.762;14.320;2023-04-04T04:26:36;101942.63;;;-2.05;100.00
7168;BME280;3625;51.762;14.320;2023-04-04T04:29:04;101945.13;;;-2.07;100.00
7168;BME280;3625;51.762;14.320;2023-04-04T04:31:34;101946.81;;;-2.07;100.00
7168;BME280;3625;51.762;14.320;2023-04-04T04:34:04;101945.78;;;-2.11;100.00
7168;BME280;3625;51.762;14.320;2023-04-04T04:36:35;101948.69;;;-2.05;100.00
7168;BME280;3625;51.762;14.320;2023-04-04T04:39:36;101945.69;;;-2.12;100.00
7168;BME280;3625;51.762;14.320;2023-04-04T04:42:17;101943.19;;;-2.11;100.00
7168;BME280;3625;51.762;14.320;2023-04-04T04:44:51;101938.41;;;-2.19;100.00
7168;BME280;3625;51.762;14.320;2023-04-04T04:47:20;101946.50;;;-2.30;100.00
7168;BME280;3625;51.762;14.320;2023-04-04T04:49:49;101950.41;;;-2.38;100.00
7168;BME280;3625;51.762;14.320;2023-04-04T04:52:24;101945.63;;;-2.30;100.00
7168;BME280;3625;51.762;14.320;2023-04-04T04:54:53;101955.59;;;-2.21;100.00
7168;BME280;3625;51.762;14.320;2023-04-04T04:57:24;101929.34;;;-2.28;100.00
7168;BME280;3625;51.762;14.320;2023-04-04T04:59:55;101936.84;;;-2.16;100.00
7168;BME280;3625;51.762;14.320;2023-04-04T05:02:26;101952.25;;;-2.03;100.00
7168;BME280;3625;51.762;14.320;2023-04-04T05:04:55;101955.84;;;-2.01;100.00
7168;BME280;3625;51.762;14.320;2023-04-04T05:07:25;101955.84;;;-2.01;100.00
7168;BME280;3625;51.762;14.320;2023-04-04T05:09:54;101956.72;;;-2.00;100.00
7168;BME280;3625;51.762;14.320;2023-04-04T05:12:24;101956.72;;;-2.00;100.00
7168;BME280;3625;51.762;14.320;2023-04-04T05:14:54;101956.72;;;-2.00;100.00
7168;BME280;3625;51.762;14.320;2023-04-04T05:17:24;101965.94;;;-1.89;100.00
7168;BME280;3625;51.762;14.320;2023-04-04T05:19:57;101963.22;;;-1.92;100.00
7168;BME280;3625;51.762;14.320;2023-04-04T05:22:25;101972.69;;;-1.93;100.00
7168;BME280;3625;51.762;14.320;2023-04-04T05:24:56;101960.63;;;-1.92;100.00
7168;BME280;3625;51.762;14.320;2023-04-04T05:27:26;101973.97;;;-1.84;100.00
7168;BME280;3625;51.762;14.320;2023-04-04T05:30:00;101970.88;;;-1.77;100.00
7168;BME280;3625;51.762;14.320;2023-04-04T05:32:38;101981.47;;;-1.73;100.00
7168;BME280;3625;51.762;14.320;2023-04-04T05:35:14;101976.53;;;-1.68;100.00
7168;BME280;3625;51.762;14.320;2023-04-04T05:37:43;101988.38;;;-1.57;100.00
7168;BME280;3625;51.762;14.320;2023-04-04T05:40:15;101985.19;;;-1.52;100.00
7168;BME280;3625;51.762;14.320;2023-04-04T05:42:58;101856.44;;;-2.17;100.00
7168;BME280;3625;51.762;14.320;2023-04-04T05:45:34;101993.75;;;-1.36;100.00
7168;BME280;3625;51.762;14.320;2023-04-04T05:48:03;102003.56;;;-1.31;100.00
7168;BME280;3625;51.762;14.320;2023-04-04T05:50:38;101995.09;;;-1.27;100.00
7168;BME280;3625;51.762;14.320;2023-04-04T05:53:07;101998.59;;;-1.26;100.00
7168;BME280;3625;51.762;14.320;2023-04-04T05:55:36;102002.38;;;-1.20;100.00
7168;BME280;3625;51.762;14.320;2023-04-04T05:58:06;102003.06;;;-1.06;100.00
7168;BME280;3625;51.762;14.320;2023-04-04T06:00:46;102002.56;;;-0.99;100.00
7168;BME280;3625;51.762;14.320;2023-04-04T06:03:15;101993.22;;;-0.95;100.00
7168;BME280;3625;51.762;14.320;2023-04-04T06:05:50;102005.16;;;-0.81;100.00
7168;BME280;3625;51.762;14.320;2023-04-04T06:08:20;101994.84;;;-0.80;100.00
7168;BME280;3625;51.762;14.320;2023-04-04T06:10:48;101995.94;;;-0.74;100.00
7168;BME280;3625;51.762;14.320;2023-04-04T06:13:18;101977.09;;;-0.70;100.00
7168;BME280;3625;51.762;14.320;2023-04-04T06:15:52;101987.16;;;-0.59;100.00
7168;BME280;3625;51.762;14.320;2023-04-04T06:18:20;101988.66;;;-0.46;100.00
7168;BME280;3625;51.762;14.320;2023-04-04T06:20:49;101991.53;;;-0.40;100.00
7168;BME280;3625;51.762;14.320;2023-04-04T06:23:18;102001.19;;;-0.38;100.00
7168;BME280;3625;51.762;14.320;2023-04-04T06:25:49;101993.47;;;-0.36;100.00
7168;BME280;3625;51.762;14.320;2023-04-04T06:28:21;101990.41;;;-0.27;100.00
7168;BME280;3625;51.762;14.320;2023-04-04T06:30:50;101994.97;;;-0.22;100.00
7168;BME280;3625;51.762;14.320;2023-04-04T06:33:27;102002.31;;;-0.13;100.00
7168;BME280;3625;51.762;14.320;2023-04-04T06:35:56;101994.91;;;-0.04;100.00
7168;BME280;3625;51.762;14.320;2023-04-04T06:38:25;101996.84;;;0.00;100.00
7168;BME280;3625;51.762;14.320;2023-04-04T06:40:57;102000.53;;;0.05;100.00
7168;BME280;3625;51.762;14.320;2023-04-04T06:43:27;101969.09;;;0.00;100.00
7168;BME280;3625;51.762;14.320;2023-04-04T06:45:58;101982.66;;;0.13;100.00
7168;BME280;3625;51.762;14.320;2023-04-04T06:48:27;101993.00;;;0.30;100.00
7168;BME280;3625;51.762;14.320;2023-04-04T06:50:55;101995.13;;;0.39;100.00
7168;BME280;3625;51.762;14.320;2023-04-04T06:53:24;101981.94;;;0.36;100.00
7168;BME280;3625;51.762;14.320;2023-04-04T06:55:53;101991.88;;;0.45;100.00
7168;BME280;3625;51.762;14.320;2023-04-04T06:58:21;101991.28;;;0.50;100.00
7168;BME280;3625;51.762;14.320;2023-04-04T07:00:51;101989.88;;;0.58;100.00
7168;BME280;3625;51.762;14.320;2023-04-04T07:03:20;101992.81;;;0.66;100.00
7168;BME280;3625;51.762;14.320;2023-04-04T07:05:50;101997.75;;;0.81;100.00
7168;BME280;3625;51.762;14.320;2023-04-04T07:08:19;102001.25;;;0.81;100.00
7168;BME280;3625;51.762;14.320;2023-04-04T07:10:47;101995.22;;;0.82;100.00
7168;BME280;3625;51.762;14.320;2023-04-04T07:13:16;101993.19;;;0.96;100.00
7168;BME280;3625;51.762;14.320;2023-04-04T07:15:45;101991.44;;;0.95;100.00
7168;BME280;3625;51.762;14.320;2023-04-04T07:18:17;101964.72;;;0.80;100.00
7168;BME280;3625;51.762;14.320;2023-04-04T07:20:46;102001.50;;;1.08;100.00
7168;BME280;3625;51.762;14.320;2023-04-04T07:23:14;102002.78;;;1.18;100.00
7168;BME280;3625;51.762;14.320;2023-04-04T07:25:43;101991.25;;;1.33;100.00
7168;BME280;3625;51.762;14.320;2023-04-04T07:28:12;101992.44;;;1.41;100.00
7168;BME280;3625;51.762;14.320;2023-04-04T07:30:40;101994.22;;;1.42;99.30
7168;BME280;3625;51.762;14.320;2023-04-04T07:33:09;101991.81;;;1.47;97.03
7168;BME280;3625;51.762;14.320;2023-04-04T07:35:39;101985.63;;;1.45;92.70
7168;BME280;3625;51.762;14.320;2023-04-04T07:38:08;101993.28;;;1.63;93.60
7168;BME280;3625;51.762;14.320;2023-04-04T07:40:36;101988.88;;;1.62;94.46
7168;BME280;3625;51.762;14.320;2023-04-04T07:43:05;101979.09;;;1.56;93.81
7168;BME280;3625;51.762;14.320;2023-04-04T07:45:34;101991.56;;;1.63;93.64
7168;BME280;3625;51.762;14.320;2023-04-04T07:48:03;101993.28;;;1.63;91.80
7168;BME280;3625;51.762;14.320;2023-04-04T07:50:32;101994.22;;;1.42;94.04
7168;BME280;3625;51.762;14.320;2023-04-04T07:53:02;101990.28;;;1.31;94.12
7168;BME280;3625;51.762;14.320;2023-04-04T07:55:30;101988.69;;;1.35;92.57
7168;BME280;3625;51.762;14.320;2023-04-04T07:57:59;101995.03;;;1.41;92.31
7168;BME280;3625;51.762;14.320;2023-04-04T08:00:28;101992.66;;;1.47;91.94
7168;BME280;3625;51.762;14.320;2023-04-04T08:02:56;101910.53;;;1.14;89.86
7168;BME280;3625;51.762;14.320;2023-04-04T08:05:27;101985.50;;;1.86;85.75
7168;BME280;3625;51.762;14.320;2023-04-04T08:07:56;101986.41;;;2.11;83.21
7168;BME280;3625;51.762;14.320;2023-04-04T08:10:26;101990.25;;;2.46;78.75
7168;BME280;3625;51.762;14.320;2023-04-04T08:12:54;101988.47;;;2.95;72.93
7168;BME280;3625;51.762;14.320;2023-04-04T08:15:23;101998.06;;;3.22;61.93
7168;BME280;3625;51.762;14.320;2023-04-04T08:17:52;101921.09;;;3.14;62.65
7168;BME280;3625;51.762;14.320;2023-04-04T08:20:22;101997.91;;;4.31;57.43
7168;BME280;3625;51.762;14.320;2023-04-04T08:22:51;102004.25;;;4.09;54.08
7168;BME280;3625;51.762;14.320;2023-04-04T08:25:20;101993.66;;;4.04;54.55
7168;BME280;3625;51.762;14.320;2023-04-04T08:27:50;101995.78;;;4.49;53.87
7168;BME280;3625;51.762;14.320;2023-04-04T08:30:19;101992.06;;;5.07;53.48
7168;BME280;3625;51.762;14.320;2023-04-04T08:32:48;101989.22;;;5.34;51.01
7168;BME280;3625;51.762;14.320;2023-04-04T08:35:16;101995.28;;;4.97;48.85
7168;BME280;3625;51.762;14.320;2023-04-04T08:37:45;101990.13;;;5.00;50.02
7168;BME280;3625;51.762;14.320;2023-04-04T08:40:14;101994.03;;;5.53;49.82
7168;BME280;3625;51.762;14.320;2023-04-04T08:42:43;101985.56;;;5.28;49.79
7168;BME280;3625;51.762;14.320;2023-04-04T08:45:17;101987.94;;;5.55;49.45
7168;BME280;3625;51.762;14.320;2023-04-04T08:47:48;101939.53;;;4.36;50.03
7168;BME280;3625;51.762;14.320;2023-04-04T08:50:19;101959.78;;;4.76;50.35
7168;BME280;3625;51.762;14.320;2023-04-04T08:52:49;101983.75;;;4.90;50.57
7168;BME280;3625;51.762;14.320;2023-04-04T08:55:21;101984.00;;;4.99;50.61
7168;BME280;3625;51.762;14.320;2023-04-04T08:57:49;101985.34;;;4.83;50.85
7168;BME280;3625;51.762;14.320;2023-04-04T09:00:20;101984.31;;;4.78;51.64
7168;BME280;3625;51.762;14.320;2023-04-04T09:02:55;101971.69;;;4.97;50.56
7168;BME280;3625;51.762;14.320;2023-04-04T09:05:26;101982.31;;;5.39;49.82
7168;BME280;3625;51.762;14.320;2023-04-04T09:07:55;101969.13;;;5.75;50.01
7168;BME280;3625;51.762;14.320;2023-04-04T09:10:25;101977.63;;;5.61;48.20
7168;BME280;3625;51.762;14.320;2023-04-04T09:12:56;101929.06;;;5.05;48.40
7168;BME280;3625;51.762;14.320;2023-04-04T09:15:46;101965.50;;;4.60;48.82
7168;BME280;3625;51.762;14.320;2023-04-04T09:18:16;101953.81;;;4.16;50.37
7168;BME280;3625;51.762;14.320;2023-04-04T09:20:46;101968.19;;;4.30;50.21
7168;BME280;3625;51.762;14.320;2023-04-04T09:23:16;101962.63;;;4.49;49.49
7168;BME280;3625;51.762;14.320;2023-04-04T09:25:48;101969.47;;;4.79;48.81
7168;BME280;3625;51.762;14.320;2023-04-04T09:28:21;101967.19;;;4.91;48.71
7168;BME280;3625;51.762;14.320;2023-04-04T09:30:52;101970.22;;;4.73;47.32
7168;BME280;3625;51.762;14.320;2023-04-04T09:33:22;101979.13;;;4.47;47.43
7168;BME280;3625;51.762;14.320;2023-04-04T09:35:54;101982.28;;;4.35;48.48
7168;BME280;3625;51.762;14.320;2023-04-04T09:38:26;101972.56;;;4.30;49.34
7168;BME280;3625;51.762;14.320;2023-04-04T09:40:56;101987.00;;;4.47;48.65
7168;BME280;3625;51.762;14.320;2023-04-04T09:43:25;101969.16;;;4.34;48.42
7168;BME280;3625;51.762;14.320;2023-04-04T09:45:59;101982.59;;;4.46;47.65
7168;BME280;3625;51.762;14.320;2023-04-04T09:48:31;101973.22;;;4.54;48.10
7168;BME280;3625;51.762;14.320;2023-04-04T09:51:05;101978.19;;;4.45;47.09
7168;BME280;3625;51.762;14.320;2023-04-04T09:53:34;101970.25;;;4.10;46.52
7168;BME280;3625;51.762;14.320;2023-04-04T09:56:05;101974.44;;;4.04;46.43
7168;BME280;3625;51.762;14.320;2023-04-04T09:58:35;101941.19;;;4.01;45.65
7168;BME280;3625;51.762;14.320;2023-04-04T10:01:12;101973.88;;;4.80;44.62
7168;BME280;3625;51.762;14.320;2023-04-04T10:03:41;101963.47;;;4.48;43.59
7168;BME280;3625;51.762;14.320;2023-04-04T10:06:10;101975.50;;;4.75;42.86
7168;BME280;3625;51.762;14.320;2023-04-04T10:08:39;101987.66;;;5.42;41.94
7168;BME280;3625;51.762;14.320;2023-04-04T10:11:09;101969.53;;;5.91;41.90
7168;BME280;3625;51.762;14.320;2023-04-04T10:13:39;101971.16;;;5.86;40.43
7168;BME280;3625;51.762;14.320;2023-04-04T10:16:14;101981.28;;;6.09;41.07
7168;BME280;3625;51.762;14.320;2023-04-04T10:18:43;101969.56;;;5.55;41.78
7168;BME280;3625;51.762;14.320;2023-04-04T10:21:11;101977.66;;;5.25;41.51
7168;BME280;3625;51.762;14.320;2023-04-04T10:23:45;101972.22;;;5.18;40.80
7168;BME280;3625;51.762;14.320;2023-04-04T10:26:14;101982.13;;;4.95;40.89
7168;BME280;3625;51.762;14.320;2023-04-04T10:28:43;101983.28;;;4.72;41.41
7168;BME280;3625;51.762;14.320;2023-04-04T10:31:21;101973.25;;;4.55;42.91
7168;BME280;3625;51.762;14.320;2023-04-04T10:34:05;101970.94;;;4.68;43.11
7168;BME280;3625;51.762;14.320;2023-04-04T10:36:44;101977.91;;;5.00;42.75
7168;BME280;3625;51.762;14.320;2023-04-04T10:39:20;101964.19;;;5.12;41.35
7168;BME280;3625;51.762;14.320;2023-04-04T10:41:51;101966.72;;;5.07;39.76
7168;BME280;3625;51.762;14.320;2023-04-04T10:44:24;101970.75;;;4.94;40.25
7168;BME280;3625;51.762;14.320;2023-04-04T10:47:05;101951.56;;;4.96;40.31
7168;BME280;3625;51.762;14.320;2023-04-04T10:49:37;101963.03;;;5.37;40.88
7168;BME280;3625;51.762;14.320;2023-04-04T10:52:08;101949.47;;;5.17;40.80
7168;BME280;3625;51.762;14.320;2023-04-04T10:54:39;101946.53;;;5.05;40.23
7168;BME280;3625;51.762;14.320;2023-04-04T10:57:09;101961.00;;;4.89;39.92
7168;BME280;3625;51.762;14.320;2023-04-04T10:59:55;101950.06;;;4.71;40.62
7168;BME280;3625;51.762;14.320;2023-04-04T11:02:45;101929.44;;;4.86;41.09
7168;BME280;3625;51.762;14.320;2023-04-04T11:05:18;101937.31;;;5.22;41.13
7168;BME280;3625;51.762;14.320;2023-04-04T11:07:55;101950.47;;;5.23;39.77
7168;BME280;3625;51.762;14.320;2023-04-04T11:10:36;101936.00;;;5.41;39.58
7168;BME280;3625;51.762;14.320;2023-04-04T11:13:10;101935.19;;;5.84;38.54
7168;BME280;3625;51.762;14.320;2023-04-04T11:15:52;101930.88;;;5.47;39.32
7168;BME280;3625;51.762;14.320;2023-04-04T11:18:46;101928.41;;;5.53;40.03
7168;BME280;3625;51.762;14.320;2023-04-04T11:21:16;101927.84;;;5.67;39.84
7168;BME280;3625;51.762;14.320;2023-04-04T11:24:14;101904.06;;;5.60;40.01
7168;BME280;3625;51.762;14.320;2023-04-04T11:26:44;101914.91;;;5.77;39.74
7168;BME280;3625;51.762;14.320;2023-04-04T11:29:21;101892.25;;;5.40;40.05
7168;BME280;3625;51.762;14.320;2023-04-04T11:32:32;101923.47;;;5.27;38.62
7168;BME280;3625;51.762;14.320;2023-04-04T11:35:06;101928.13;;;5.81;37.43
7168;BME280;3625;51.762;14.320;2023-04-04T11:37:42;101884.88;;;6.06;37.75
7168;BME280;3625;51.762;14.320;2023-04-04T11:40:12;101907.03;;;7.23;37.19
7168;BME280;3625;51.762;14.320;2023-04-04T11:42:41;101901.16;;;7.40;36.45
7168;BME280;3625;51.762;14.320;2023-04-04T11:45:18;101903.03;;;7.50;37.27
7168;BME280;3625;51.762;14.320;2023-04-04T11:47:48;101897.00;;;6.97;38.03
7168;BME280;3625;51.762;14.320;2023-04-04T11:50:18;101893.91;;;5.77;39.85
7168;BME280;3625;51.762;14.320;2023-04-04T11:52:49;101889.94;;;5.14;40.48
7168;BME280;3625;51.762;14.320;2023-04-04T11:55:20;101893.78;;;5.30;40.49
7168;BME280;3625;51.762;14.320;2023-04-04T11:57:49;101891.31;;;5.38;38.86
7168;BME280;3625;51.762;14.320;2023-04-04T12:00:29;101888.69;;;5.78;38.26
7168;BME280;3625;51.762;14.320;2023-04-04T12:02:58;101874.59;;;6.18;37.95
7168;BME280;3625;51.762;14.320;2023-04-04T12:05:29;101889.50;;;6.18;37.76
7168;BME280;3625;51.762;14.320;2023-04-04T12:07:58;101872.56;;;6.52;38.12
7168;BME280;3625;51.762;14.320;2023-04-04T12:10:30;101879.59;;;7.07;37.79
7168;BME280;3625;51.762;14.320;2023-04-04T12:13:04;101839.56;;;7.29;36.37
7168;BME280;3625;51.762;14.320;2023-04-04T12:15:34;101861.72;;;7.46;35.80
7168;BME280;3625;51.762;14.320;2023-04-04T12:18:06;101864.34;;;6.32;37.23
7168;BME280;3625;51.762;14.320;2023-04-04T12:20:40;101866.22;;;5.91;38.84
7168;BME280;3625;51.762;14.320;2023-04-04T12:23:08;101876.56;;;5.85;37.36
7168;BME280;3625;51.762;14.320;2023-04-04T12:25:37;101868.63;;;6.27;37.76
7168;BME280;3625;51.762;14.320;2023-04-04T12:28:10;101860.00;;;6.87;37.26
7168;BME280;3625;51.762;14.320;2023-04-04T12:30:40;101861.53;;;7.31;35.93
7168;BME280;3625;51.762;14.320;2023-04-04T12:33:08;101852.56;;;7.17;35.81
7168;BME280;3625;51.762;14.320;2023-04-04T12:35:39;101855.72;;;6.40;35.86
7168;BME280;3625;51.762;14.320;2023-04-04T12:38:15;101842.59;;;6.39;36.49
7168;BME280;3625;51.762;14.320;2023-04-04T12:40:45;101850.41;;;6.36;37.34
7168;BME280;3625;51.762;14.320;2023-04-04T12:43:16;101834.56;;;6.33;38.02
7168;BME280;3625;51.762;14.320;2023-04-04T12:45:45;101845.38;;;6.50;37.81
7168;BME280;3625;51.762;14.320;2023-04-04T12:48:14;101845.59;;;6.63;37.79
7168;BME280;3625;51.762;14.320;2023-04-04T12:50:53;101834.13;;;6.58;36.47
7168;BME280;3625;51.762;14.320;2023-04-04T12:53:24;101836.75;;;7.15;36.59
7168;BME280;3625;51.762;14.320;2023-04-04T12:55:59;101830.38;;;7.66;35.75
7168;BME280;3625;51.762;14.320;2023-04-04T12:58:30;101824.41;;;7.82;35.58
7168;BME280;3625;51.762;14.320;2023-04-04T13:01:02;101778.66;;;6.43;36.50
7168;BME280;3625;51.762;14.320;2023-04-04T13:03:33;101746.94;;;5.81;37.80
7168;BME280;3625;51.762;14.320;2023-04-04T13:06:12;101825.16;;;6.46;37.88
7168;BME280;3625;51.762;14.320;2023-04-04T13:08:51;101826.63;;;6.84;36.78
7168;BME280;3625;51.762;14.320;2023-04-04T13:11:20;101818.38;;;7.20;36.89
7168;BME280;3625;51.762;14.320;2023-04-04T13:14:00;101822.81;;;7.95;36.19
7168;BME280;3625;51.762;14.320;2023-04-04T13:16:30;101787.44;;;7.73;35.49
7168;BME280;3625;51.762;14.320;2023-04-04T13:19:00;101765.28;;;7.54;35.14
7168;BME280;3625;51.762;14.320;2023-04-04T13:21:30;101797.06;;;7.02;36.95
7168;BME280;3625;51.762;14.320;2023-04-04T13:24:01;101815.72;;;6.58;38.09